createdAt,value
2019-04-04T00:00:03.455Z,1.10
2019-04-04T00:01:03.448Z,1.20
2019-04-04T00:02:03.432Z,1.10
2019-04-04T00:03:03.418Z,1.10
2019-04-04T00:04:03.406Z,1.30
2019-04-04T00:05:03.402Z,1.30
2019-04-04T00:06:03.384Z,1.20
2019-04-04T00:07:03.415Z,1.00
2019-04-04T00:08:03.362Z,1.30
2019-04-04T00:09:03.349Z,1.20
2019-04-04T00:10:04.068Z,1.20
2019-04-04T00:11:04.079Z,1.10
2019-04-04T00:12:03.316Z,1.10
2019-04-04T00:13:03.315Z,1.30
2019-04-04T00:14:03.288Z,1.10
2019-04-04T00:15:03.282Z,1.20
2019-04-04T00:16:03.266Z,1.30
2019-04-04T00:17:09.417Z,1.40
2019-04-04T00:18:03.257Z,1.40
2019-04-04T00:19:03.271Z,1.40
2019-04-04T00:20:03.224Z,1.60
2019-04-04T00:21:03.278Z,1.20
2019-04-04T00:22:04.907Z,1.20
2019-04-04T00:23:03.193Z,1.30
2019-04-04T00:24:03.177Z,1.20
2019-04-04T00:25:03.170Z,1.20
2019-04-04T00:26:03.158Z,1.20
2019-04-04T00:27:03.140Z,1.30
2019-04-04T00:28:03.127Z,1.30
2019-04-04T00:29:03.122Z,1.20
2019-04-04T00:30:03.110Z,1.20
2019-04-04T00:31:03.133Z,1.30
2019-04-04T00:32:03.090Z,1.60
2019-04-04T00:33:03.075Z,1.20
2019-04-04T00:34:03.061Z,1.10
2019-04-04T00:35:03.052Z,1.40
2019-04-04T00:36:03.354Z,1.10
2019-04-04T00:37:04.723Z,1.40
2019-04-04T00:38:03.021Z,1.10
2019-04-04T00:39:03.003Z,1.40
2019-04-04T00:40:02.995Z,1.40
2019-04-04T00:41:02.989Z,1.50
2019-04-04T00:42:02.983Z,1.50
2019-04-04T00:43:03.058Z,1.50
2019-04-04T00:44:02.949Z,1.70
2019-04-04T00:45:02.935Z,1.20
2019-04-04T00:46:02.933Z,1.40
2019-04-04T00:47:02.913Z,1.50
2019-04-04T00:48:03.582Z,1.30
2019-04-04T00:49:09.296Z,1.50
2019-04-04T00:50:06.085Z,1.40
2019-04-04T00:51:02.863Z,1.50
2019-04-04T00:52:02.857Z,1.50
2019-04-04T00:53:02.850Z,1.50
2019-04-04T00:54:02.832Z,1.50
2019-04-04T00:55:02.826Z,1.40
2019-04-04T00:56:02.806Z,1.40
2019-04-04T00:57:02.827Z,1.40
2019-04-04T00:58:02.793Z,1.20
2019-04-04T00:59:02.814Z,1.30
2019-04-04T01:00:02.767Z,1.40
2019-04-04T01:01:02.754Z,1.30
2019-04-04T01:02:02.737Z,1.60
2019-04-04T01:03:02.729Z,1.40
2019-04-04T01:04:02.715Z,1.20
2019-04-04T01:05:02.717Z,1.40
2019-04-04T01:06:03.585Z,1.50
2019-04-04T01:07:04.694Z,1.60
2019-04-04T01:08:02.670Z,1.60
2019-04-04T01:09:02.696Z,1.60
2019-04-04T01:10:02.647Z,1.50
2019-04-04T01:11:02.642Z,1.70
2019-04-04T01:12:02.638Z,1.40
2019-04-04T01:13:02.614Z,1.30
2019-04-04T01:14:02.606Z,1.40
2019-04-04T01:15:02.607Z,1.30
2019-04-04T01:16:03.322Z,1.60
2019-04-04T01:17:04.120Z,1.40
2019-04-04T01:18:04.073Z,1.60
2019-04-04T01:19:02.550Z,1.20
2019-04-04T01:20:02.534Z,1.40
2019-04-04T01:21:08.940Z,1.30
2019-04-04T01:22:02.516Z,1.20
2019-04-04T01:23:02.499Z,1.50
2019-04-04T01:24:02.491Z,1.40
2019-04-04T01:25:02.490Z,1.40
2019-04-04T01:26:03.515Z,1.50
2019-04-04T01:27:05.919Z,1.20
2019-04-04T01:28:02.446Z,1.50
2019-04-04T01:29:02.436Z,1.40
2019-04-04T01:30:02.420Z,1.20
2019-04-04T01:31:02.405Z,1.40
2019-04-04T01:32:02.441Z,1.50
2019-04-04T01:33:03.822Z,1.60
2019-04-04T01:34:02.371Z,1.60
2019-04-04T01:35:02.363Z,1.60
2019-04-04T01:36:02.355Z,1.60
2019-04-04T01:37:02.346Z,1.50
2019-04-04T01:38:02.343Z,1.20
2019-04-04T01:39:02.318Z,1.60
2019-04-04T01:40:02.871Z,1.30
2019-04-04T01:41:04.327Z,1.40
2019-04-04T01:42:02.289Z,1.50
2019-04-04T01:43:02.275Z,1.70
2019-04-04T01:44:05.260Z,1.50
2019-04-04T01:45:02.246Z,1.40
2019-04-04T01:46:02.235Z,1.30
2019-04-04T01:47:02.230Z,1.40
2019-04-04T01:48:02.222Z,1.70
2019-04-04T01:49:02.243Z,1.40
2019-04-04T01:50:02.215Z,1.40
2019-04-04T01:51:02.181Z,1.30
2019-04-04T01:52:02.165Z,1.60
2019-04-04T01:53:08.541Z,1.60
2019-04-04T01:54:02.141Z,1.60
2019-04-04T01:55:03.415Z,1.60
2019-04-04T01:56:02.123Z,1.50
2019-04-04T01:57:02.108Z,1.70
2019-04-04T01:58:02.100Z,1.70
2019-04-04T01:59:02.091Z,1.50
2019-04-04T02:00:02.088Z,1.50
2019-04-04T02:01:02.065Z,1.40
2019-04-04T02:02:02.048Z,1.40
2019-04-04T02:03:02.037Z,1.50
2019-04-04T02:04:02.028Z,1.50
2019-04-04T02:05:02.056Z,1.40
2019-04-04T02:06:02.005Z,1.40
2019-04-04T02:07:02.008Z,1.30
2019-04-04T02:08:01.979Z,1.60
2019-04-04T02:09:02.847Z,1.40
2019-04-04T02:10:03.241Z,1.40
2019-04-04T02:11:01.959Z,1.60
2019-04-04T02:12:01.938Z,1.30
2019-04-04T02:13:01.966Z,1.40
2019-04-04T02:14:01.913Z,1.40
2019-04-04T02:15:01.909Z,1.40
2019-04-04T02:16:01.895Z,1.50
2019-04-04T02:17:01.881Z,1.60
2019-04-04T02:18:01.865Z,1.40
2019-04-04T02:19:01.867Z,1.50
2019-04-04T02:20:01.850Z,1.40
2019-04-04T02:21:01.833Z,1.50
2019-04-04T02:22:01.822Z,1.40
2019-04-04T02:23:01.959Z,1.40
2019-04-04T02:24:02.084Z,1.30
2019-04-04T02:25:08.261Z,1.40
2019-04-04T02:26:04.898Z,1.50
2019-04-04T02:27:01.765Z,1.20
2019-04-04T02:28:01.754Z,1.60
2019-04-04T02:29:01.743Z,1.20
2019-04-04T02:30:01.773Z,1.50
2019-04-04T02:31:01.731Z,1.50
2019-04-04T02:32:01.708Z,1.40
2019-04-04T02:33:01.698Z,1.30
2019-04-04T02:34:05.368Z,1.70
2019-04-04T02:35:01.767Z,1.60
2019-04-04T02:36:01.712Z,1.50
2019-04-04T02:37:01.650Z,1.40
2019-04-04T02:38:01.647Z,1.40
2019-04-04T02:39:01.631Z,1.50
2019-04-04T02:40:01.614Z,1.20
2019-04-04T02:41:01.611Z,1.50
2019-04-04T02:42:01.604Z,1.50
2019-04-04T02:43:01.581Z,1.30
2019-04-04T02:44:01.571Z,1.40
2019-04-04T02:45:05.088Z,1.40
2019-04-04T02:46:01.544Z,1.20
2019-04-04T02:47:01.539Z,1.40
2019-04-04T02:48:01.537Z,1.30
2019-04-04T02:49:01.555Z,1.40
2019-04-04T02:50:02.283Z,1.50
2019-04-04T02:51:01.493Z,1.40
2019-04-04T02:52:01.491Z,1.60
2019-04-04T02:53:01.519Z,1.40
2019-04-04T02:54:01.458Z,1.30
2019-04-04T02:55:01.447Z,1.50
2019-04-04T02:56:03.323Z,1.40
2019-04-04T02:57:09.213Z,1.40
2019-04-04T02:58:01.406Z,1.40
2019-04-04T02:59:01.418Z,1.30
2019-04-04T03:00:01.419Z,1.40
2019-04-04T03:01:01.379Z,1.40
2019-04-04T03:02:04.881Z,1.60
2019-04-04T03:03:01.357Z,1.60
2019-04-04T03:04:01.343Z,1.60
2019-04-04T03:05:01.375Z,1.40
2019-04-04T03:06:01.321Z,1.40
2019-04-04T03:07:01.302Z,1.50
2019-04-04T03:08:04.170Z,1.50
2019-04-04T03:09:01.304Z,1.60
2019-04-04T03:10:01.285Z,1.30
2019-04-04T03:11:01.306Z,1.30
2019-04-04T03:12:01.298Z,1.50
2019-04-04T03:13:01.243Z,1.50
2019-04-04T03:14:03.684Z,1.50
2019-04-04T03:15:01.219Z,1.30
2019-04-04T03:16:01.203Z,1.40
2019-04-04T03:17:01.236Z,1.30
2019-04-04T03:18:03.915Z,1.40
2019-04-04T03:19:01.171Z,1.40
2019-04-04T03:20:01.165Z,1.70
2019-04-04T03:21:01.142Z,1.60
2019-04-04T03:22:01.144Z,1.60
2019-04-04T03:23:01.498Z,1.30
2019-04-04T03:24:01.115Z,1.60
2019-04-04T03:25:01.107Z,1.40
2019-04-04T03:26:01.093Z,1.40
2019-04-04T03:27:01.125Z,1.50
2019-04-04T03:28:01.074Z,1.40
2019-04-04T03:29:10.439Z,1.50
2019-04-04T03:30:01.067Z,1.40
2019-04-04T03:31:03.106Z,1.60
2019-04-04T03:32:01.031Z,1.40
2019-04-04T03:33:01.029Z,1.40
2019-04-04T03:34:08.697Z,1.60
2019-04-04T03:35:02.118Z,1.60
2019-04-04T03:36:01.363Z,1.60
2019-04-04T03:37:00.968Z,1.60
2019-04-04T03:38:00.953Z,1.50
2019-04-04T03:39:00.946Z,1.60
2019-04-04T03:40:00.944Z,1.50
2019-04-04T03:41:00.917Z,1.50
2019-04-04T03:42:00.919Z,1.70
2019-04-04T03:43:00.904Z,1.20
2019-04-04T03:44:00.898Z,1.50
2019-04-04T03:45:00.879Z,1.60
2019-04-04T03:46:01.648Z,1.90
2019-04-04T03:47:00.857Z,1.30
2019-04-04T03:48:00.845Z,1.60
2019-04-04T03:49:00.868Z,1.30
2019-04-04T03:50:00.813Z,1.80
2019-04-04T03:51:04.040Z,1.30
2019-04-04T03:52:00.795Z,1.70
2019-04-04T03:53:00.791Z,1.40
2019-04-04T03:54:00.779Z,1.90
2019-04-04T03:55:00.824Z,1.40
2019-04-04T03:56:01.573Z,1.70
2019-04-04T03:57:00.735Z,1.50
2019-04-04T03:58:00.726Z,1.70
2019-04-04T03:59:00.820Z,1.50
2019-04-04T04:00:05.597Z,1.70
2019-04-04T04:02:09.870Z,1.60
2019-04-04T04:03:09.851Z,1.70
2019-04-04T04:04:09.842Z,1.70
2019-04-04T04:05:09.831Z,1.60
2019-04-04T04:06:10.094Z,1.50
2019-04-04T04:07:13.814Z,1.50
2019-04-04T04:08:10.792Z,1.60
2019-04-04T04:09:09.792Z,1.70
2019-04-04T04:10:09.783Z,1.50
2019-04-04T04:11:09.763Z,1.40
2019-04-04T04:12:11.130Z,1.70
2019-04-04T04:13:09.738Z,1.70
2019-04-04T04:14:09.729Z,1.50
2019-04-04T04:15:09.721Z,1.60
2019-04-04T04:16:09.719Z,1.40
2019-04-04T04:17:11.590Z,1.60
2019-04-04T04:18:09.704Z,1.40
2019-04-04T04:19:09.676Z,1.80
2019-04-04T04:20:09.663Z,1.60
2019-04-04T04:21:10.928Z,1.50
2019-04-04T04:22:12.707Z,1.50
2019-04-04T04:23:09.629Z,1.50
2019-04-04T04:24:09.625Z,1.50
2019-04-04T04:25:09.600Z,1.60
2019-04-04T04:26:09.955Z,1.50
2019-04-04T04:27:14.436Z,1.50
2019-04-04T04:28:10.567Z,1.80
2019-04-04T04:29:09.590Z,1.50
2019-04-04T04:30:09.549Z,1.80
2019-04-04T04:31:14.177Z,1.50
2019-04-04T04:32:10.514Z,1.70
2019-04-04T04:33:09.502Z,1.70
2019-04-04T04:34:16.151Z,1.50
2019-04-04T04:35:09.490Z,1.80
2019-04-04T04:36:10.237Z,1.70
2019-04-04T04:37:09.456Z,1.60
2019-04-04T04:38:09.453Z,1.60
2019-04-04T04:39:09.433Z,1.50
2019-04-04T04:40:13.625Z,1.70
2019-04-04T04:41:10.415Z,1.70
2019-04-04T04:42:09.402Z,1.50
2019-04-04T04:43:09.391Z,1.50
2019-04-04T04:44:09.378Z,1.60
2019-04-04T04:45:12.156Z,1.60
2019-04-04T04:46:09.391Z,1.40
2019-04-04T04:47:09.343Z,1.60
2019-04-04T04:48:09.328Z,1.70
2019-04-04T04:49:09.325Z,1.70
2019-04-04T04:50:10.010Z,1.60
2019-04-04T04:51:11.513Z,1.70
2019-04-04T04:52:09.293Z,1.40
2019-04-04T04:53:09.281Z,1.30
2019-04-04T04:54:09.256Z,1.60
2019-04-04T04:55:11.873Z,1.70
2019-04-04T04:56:09.237Z,1.70
2019-04-04T04:57:09.225Z,1.60
2019-04-04T04:58:10.273Z,1.70
2019-04-04T04:59:09.204Z,1.60
2019-04-04T05:00:09.189Z,1.60
2019-04-04T05:01:09.183Z,1.50
2019-04-04T05:02:09.180Z,1.80
2019-04-04T05:03:09.158Z,1.70
2019-04-04T05:04:09.157Z,1.70
2019-04-04T05:05:09.129Z,1.60
2019-04-04T05:06:15.219Z,1.60
2019-04-04T05:07:09.114Z,1.60
2019-04-04T05:08:10.213Z,1.70
2019-04-04T05:09:09.091Z,1.80
2019-04-04T05:10:09.112Z,1.50
2019-04-04T05:11:09.062Z,1.70
2019-04-04T05:12:09.047Z,1.80
2019-04-04T05:13:09.040Z,1.60
2019-04-04T05:14:09.034Z,1.70
2019-04-04T05:15:09.019Z,1.50
2019-04-04T05:16:09.067Z,1.70
2019-04-04T05:17:10.215Z,1.80
2019-04-04T05:18:11.788Z,2.00
2019-04-04T05:19:08.975Z,1.40
2019-04-04T05:20:08.994Z,1.70
2019-04-04T05:21:08.946Z,1.80
2019-04-04T05:22:09.247Z,1.80
2019-04-04T05:23:11.095Z,1.80
2019-04-04T05:24:08.914Z,1.70
2019-04-04T05:25:09.149Z,1.90
2019-04-04T05:26:09.736Z,1.70
2019-04-04T05:27:08.884Z,2.00
2019-04-04T05:28:10.888Z,1.80
2019-04-04T05:29:08.866Z,1.60
2019-04-04T05:30:08.843Z,1.70
2019-04-04T05:31:08.856Z,1.90
2019-04-04T05:32:08.822Z,2.10
2019-04-04T05:33:08.810Z,2.00
2019-04-04T05:34:08.797Z,1.80
2019-04-04T05:35:08.788Z,1.90
2019-04-04T05:36:08.778Z,2.10
2019-04-04T05:37:08.811Z,2.00
2019-04-04T05:38:14.839Z,2.00
2019-04-04T05:39:08.756Z,1.80
2019-04-04T05:40:08.731Z,2.10
2019-04-04T05:41:08.735Z,1.70
2019-04-04T05:42:08.720Z,2.00
2019-04-04T05:43:08.734Z,1.90
2019-04-04T05:44:09.958Z,2.10
2019-04-04T05:45:08.676Z,2.10
2019-04-04T05:46:08.656Z,1.90
2019-04-04T05:47:08.653Z,2.00
2019-04-04T05:48:08.662Z,2.10
2019-04-04T05:49:08.674Z,2.00
2019-04-04T05:50:10.919Z,2.20
2019-04-04T05:51:08.598Z,2.00
2019-04-04T05:52:09.174Z,1.80
2019-04-04T05:53:08.591Z,2.00
2019-04-04T05:54:08.618Z,1.90
2019-04-04T05:55:10.833Z,2.00
2019-04-04T05:56:08.549Z,2.00
2019-04-04T05:57:08.537Z,1.90
2019-04-04T05:58:08.522Z,2.00
2019-04-04T05:59:08.521Z,2.10
2019-04-04T06:00:08.530Z,2.00
2019-04-04T06:01:08.485Z,2.00
2019-04-04T06:02:11.024Z,2.20
2019-04-04T06:03:08.484Z,2.40
2019-04-04T06:04:08.458Z,2.20
2019-04-04T06:05:08.475Z,2.40
2019-04-04T06:06:10.503Z,2.20
2019-04-04T06:07:08.429Z,2.00
2019-04-04T06:08:08.804Z,2.10
2019-04-04T06:09:08.405Z,2.20
2019-04-04T06:10:18.128Z,2.00
2019-04-04T06:11:08.369Z,2.20
2019-04-04T06:12:08.379Z,2.20
2019-04-04T06:13:08.351Z,2.00
2019-04-04T06:14:08.333Z,2.30
2019-04-04T06:15:08.324Z,2.10
2019-04-04T06:16:08.315Z,2.60
2019-04-04T06:17:08.300Z,2.40
2019-04-04T06:18:10.963Z,2.20
2019-04-04T06:19:08.282Z,2.50
2019-04-04T06:20:08.267Z,2.40
2019-04-04T06:21:08.251Z,2.70
2019-04-04T06:22:08.242Z,2.20
2019-04-04T06:23:08.232Z,2.20
2019-04-04T06:24:08.238Z,2.20
2019-04-04T06:25:08.252Z,2.30
2019-04-04T06:26:08.206Z,2.40
2019-04-04T06:27:09.102Z,2.30
2019-04-04T06:28:09.909Z,2.60
2019-04-04T06:29:08.165Z,2.40
2019-04-04T06:30:08.215Z,2.50
2019-04-04T06:31:08.139Z,2.20
2019-04-04T06:32:08.131Z,2.50
2019-04-04T06:33:08.114Z,2.50
2019-04-04T06:34:10.118Z,2.50
2019-04-04T06:35:08.096Z,2.60
2019-04-04T06:36:08.080Z,2.70
2019-04-04T06:37:08.069Z,2.50
2019-04-04T06:38:08.064Z,2.40
2019-04-04T06:39:08.058Z,2.80
2019-04-04T06:40:08.079Z,2.80
2019-04-04T06:41:08.023Z,2.40
2019-04-04T06:42:14.101Z,2.50
2019-04-04T06:43:11.502Z,2.60
2019-04-04T06:44:07.992Z,2.60
2019-04-04T06:45:07.976Z,2.50
2019-04-04T06:46:08.026Z,3.00
2019-04-04T06:47:07.973Z,2.70
2019-04-04T06:48:07.940Z,2.60
2019-04-04T06:49:07.930Z,2.30
2019-04-04T06:50:08.548Z,2.70
2019-04-04T06:51:07.909Z,2.70
2019-04-04T06:52:09.371Z,2.60
2019-04-04T06:53:07.887Z,2.90
2019-04-04T06:54:07.871Z,2.40
2019-04-04T06:55:07.865Z,3.00
2019-04-04T06:56:07.850Z,2.40
2019-04-04T06:57:07.874Z,2.70
2019-04-04T06:58:09.427Z,2.50
2019-04-04T06:59:11.335Z,2.60
2019-04-04T07:00:07.808Z,2.60
2019-04-04T07:01:07.805Z,2.90
2019-04-04T07:02:07.785Z,2.60
2019-04-04T07:03:07.808Z,3.40
2019-04-04T07:04:07.754Z,2.90
2019-04-04T07:05:10.386Z,2.70
2019-04-04T07:06:08.083Z,2.60
2019-04-04T07:07:07.718Z,2.70
2019-04-04T07:08:07.712Z,2.70
2019-04-04T07:09:07.708Z,2.40
2019-04-04T07:10:07.684Z,2.90
2019-04-04T07:11:20.597Z,2.60
2019-04-04T07:12:20.312Z,2.50
2019-04-04T07:13:21.164Z,2.50
2019-04-04T07:14:13.725Z,2.70
2019-04-04T07:15:11.004Z,2.60
2019-04-04T07:16:08.233Z,3.10
2019-04-04T07:17:08.685Z,2.70
2019-04-04T07:18:07.596Z,2.70
2019-04-04T07:19:08.210Z,2.70
2019-04-04T07:20:07.577Z,2.60
2019-04-04T07:21:07.566Z,2.80
2019-04-04T07:22:07.547Z,2.50
2019-04-04T07:23:07.570Z,2.60
2019-04-04T07:24:07.525Z,2.50
2019-04-04T07:25:07.516Z,3.20
2019-04-04T07:26:09.638Z,2.50
2019-04-04T07:27:08.488Z,2.80
2019-04-04T07:28:07.487Z,2.80
2019-04-04T07:29:07.494Z,2.90
2019-04-04T07:30:07.452Z,2.90
2019-04-04T07:31:07.440Z,2.50
2019-04-04T07:32:09.544Z,2.80
2019-04-04T07:33:07.422Z,2.60
2019-04-04T07:34:07.408Z,2.80
2019-04-04T07:35:07.436Z,2.60
2019-04-04T07:36:07.385Z,2.70
2019-04-04T07:37:07.369Z,2.90
2019-04-04T07:38:07.359Z,2.70
2019-04-04T07:39:07.349Z,3.00
2019-04-04T07:40:07.338Z,2.80
2019-04-04T07:41:08.416Z,2.70
2019-04-04T07:42:07.319Z,2.90
2019-04-04T07:43:08.758Z,2.80
2019-04-04T07:44:07.287Z,2.80
2019-04-04T07:45:07.285Z,2.40
2019-04-04T07:46:16.664Z,3.00
2019-04-04T07:47:07.255Z,3.00
2019-04-04T07:48:07.243Z,2.70
2019-04-04T07:49:07.244Z,3.00
2019-04-04T07:50:07.219Z,3.20
2019-04-04T07:51:07.211Z,2.70
2019-04-04T07:52:07.204Z,2.90
2019-04-04T07:53:07.183Z,2.80
2019-04-04T07:54:07.925Z,3.30
2019-04-04T07:55:09.879Z,3.00
2019-04-04T07:56:07.155Z,2.70
2019-04-04T07:57:07.137Z,2.70
2019-04-04T07:58:07.151Z,2.70
2019-04-04T07:59:07.121Z,2.80
2019-04-04T08:00:07.106Z,3.00
2019-04-04T08:01:07.114Z,3.10
2019-04-04T08:02:07.077Z,3.10
2019-04-04T08:03:07.071Z,2.90
2019-04-04T08:04:07.061Z,3.00
2019-04-04T08:05:07.048Z,2.70
2019-04-04T08:06:07.033Z,2.90
2019-04-04T08:07:07.041Z,3.10
2019-04-04T08:08:07.014Z,2.80
2019-04-04T08:09:06.997Z,2.90
2019-04-04T08:10:19.543Z,3.40
2019-04-04T08:11:08.021Z,3.00
2019-04-04T08:12:06.963Z,3.10
2019-04-04T08:13:06.955Z,3.10
2019-04-04T08:14:06.943Z,2.80
2019-04-04T08:15:06.928Z,2.90
2019-04-04T08:16:06.917Z,3.10
2019-04-04T08:17:06.913Z,3.30
2019-04-04T08:18:12.980Z,3.20
2019-04-04T08:19:06.884Z,2.80
2019-04-04T08:20:06.876Z,2.90
2019-04-04T08:21:06.865Z,3.00
2019-04-04T08:22:06.960Z,3.10
2019-04-04T08:23:06.838Z,3.10
2019-04-04T08:24:06.834Z,2.80
2019-04-04T08:25:06.813Z,3.10
2019-04-04T08:26:09.876Z,3.20
2019-04-04T08:27:06.792Z,2.70
2019-04-04T08:28:06.826Z,3.10
2019-04-04T08:29:06.772Z,3.10
2019-04-04T08:30:06.758Z,2.70
2019-04-04T08:31:09.636Z,2.90
2019-04-04T08:32:06.740Z,3.10
2019-04-04T08:33:06.726Z,3.80
2019-04-04T08:34:06.748Z,3.00
2019-04-04T08:35:06.699Z,2.80
2019-04-04T08:36:06.839Z,3.10
2019-04-04T08:37:06.677Z,3.20
2019-04-04T08:38:06.660Z,3.10
2019-04-04T08:39:06.661Z,2.90
2019-04-04T08:40:06.649Z,3.20
2019-04-04T08:41:06.633Z,3.10
2019-04-04T08:42:06.616Z,3.10
2019-04-04T08:43:06.607Z,3.10
2019-04-04T08:44:06.596Z,3.10
2019-04-04T08:45:06.589Z,3.10
2019-04-04T08:46:06.577Z,3.10
2019-04-04T08:47:06.561Z,3.30
2019-04-04T08:48:06.550Z,2.90
2019-04-04T08:49:06.540Z,3.00
2019-04-04T08:50:19.620Z,3.00
2019-04-04T08:52:17.290Z,2.80
2019-04-04T08:53:14.690Z,3.10
2019-04-04T08:54:14.684Z,3.40
2019-04-04T08:55:14.671Z,3.10
2019-04-04T08:56:14.701Z,3.30
2019-04-04T08:57:14.642Z,3.20
2019-04-04T08:58:14.648Z,3.50
2019-04-04T08:59:14.625Z,3.10
2019-04-04T09:00:14.608Z,3.40
2019-04-04T09:01:14.605Z,3.30
2019-04-04T09:02:14.595Z,3.20
2019-04-04T09:03:14.579Z,2.90
2019-04-04T09:04:14.562Z,3.10
2019-04-04T09:05:14.555Z,3.10
2019-04-04T09:06:14.544Z,3.20
2019-04-04T09:07:14.569Z,3.20
2019-04-04T09:08:14.517Z,3.50
2019-04-04T09:09:14.514Z,3.60
2019-04-04T09:10:14.497Z,3.20
2019-04-04T09:11:14.485Z,3.60
2019-04-04T09:12:14.481Z,3.20
2019-04-04T09:13:14.493Z,2.90
2019-04-04T09:14:14.451Z,3.10
2019-04-04T09:15:14.443Z,3.70
2019-04-04T09:16:14.428Z,3.20
2019-04-04T09:17:14.420Z,3.00
2019-04-04T09:18:14.404Z,3.20
2019-04-04T09:19:14.430Z,3.30
2019-04-04T09:20:14.378Z,3.10
2019-04-04T09:21:14.368Z,3.40
2019-04-04T09:22:14.377Z,3.50
2019-04-04T09:23:20.436Z,3.30
2019-04-04T09:24:14.335Z,3.20
2019-04-04T09:25:14.340Z,3.80
2019-04-04T09:26:14.315Z,3.10
2019-04-04T09:27:14.299Z,3.10
2019-04-04T09:28:14.293Z,3.20
2019-04-04T09:29:14.280Z,3.10
2019-04-04T09:30:14.303Z,3.40
2019-04-04T09:31:14.257Z,3.10
2019-04-04T09:32:14.247Z,3.60
2019-04-04T09:33:14.236Z,3.60
2019-04-04T09:34:14.219Z,3.70
2019-04-04T09:35:14.213Z,3.30
2019-04-04T09:36:14.211Z,3.50
2019-04-04T09:37:14.192Z,3.20
2019-04-04T09:38:14.178Z,3.40
2019-04-04T09:39:14.166Z,3.20
2019-04-04T09:40:14.151Z,3.10
2019-04-04T09:41:14.152Z,3.30
2019-04-04T09:42:14.128Z,3.00
2019-04-04T09:43:14.124Z,3.20
2019-04-04T09:44:14.103Z,3.40
2019-04-04T09:45:14.098Z,3.00
2019-04-04T09:46:14.091Z,3.20
2019-04-04T09:47:14.088Z,3.10
2019-04-04T09:48:14.056Z,2.90
2019-04-04T09:49:14.053Z,3.30
2019-04-04T09:50:14.038Z,3.10
2019-04-04T09:51:14.023Z,3.20
2019-04-04T09:52:14.014Z,3.00
2019-04-04T09:53:14.039Z,3.10
2019-04-04T09:54:13.988Z,3.00
2019-04-04T09:55:20.069Z,2.60
2019-04-04T09:56:13.977Z,3.00
2019-04-04T09:57:13.956Z,2.80
2019-04-04T09:58:13.949Z,2.90
2019-04-04T09:59:13.947Z,3.10
2019-04-04T10:00:13.924Z,2.80
2019-04-04T10:01:13.910Z,3.10
2019-04-04T10:02:13.901Z,3.40
2019-04-04T10:03:13.887Z,3.50
2019-04-04T10:04:13.910Z,3.20
2019-04-04T10:05:13.864Z,3.20
2019-04-04T10:06:13.856Z,3.40
2019-04-04T10:07:13.843Z,3.30
2019-04-04T10:08:13.835Z,3.80
2019-04-04T10:09:16.074Z,3.40
2019-04-04T10:10:13.826Z,3.70
2019-04-04T10:11:13.793Z,3.40
2019-04-04T10:12:13.784Z,3.30
2019-04-04T10:13:13.772Z,3.40
2019-04-04T10:14:13.759Z,3.30
2019-04-04T10:15:13.751Z,3.00
2019-04-04T10:16:13.750Z,3.30
2019-04-04T10:17:13.729Z,3.40
2019-04-04T10:18:13.717Z,3.40
2019-04-04T10:19:13.706Z,3.50
2019-04-04T10:20:13.732Z,3.40
2019-04-04T10:21:13.690Z,3.10
2019-04-04T10:22:13.667Z,3.20
2019-04-04T10:23:13.658Z,3.20
2019-04-04T10:24:13.648Z,3.50
2019-04-04T10:25:13.638Z,3.50
2019-04-04T10:26:13.664Z,3.30
2019-04-04T10:27:19.768Z,3.40
2019-04-04T10:28:13.600Z,3.30
2019-04-04T10:29:13.590Z,3.30
2019-04-04T10:30:13.587Z,3.30
2019-04-04T10:31:13.575Z,3.40
2019-04-04T10:32:13.591Z,3.30
2019-04-04T10:33:13.543Z,3.30
2019-04-04T10:34:13.535Z,3.20
2019-04-04T10:35:13.524Z,3.20
2019-04-04T10:36:13.508Z,3.40
2019-04-04T10:37:13.495Z,3.20
2019-04-04T10:38:13.524Z,3.00
2019-04-04T10:39:13.478Z,3.70
2019-04-04T10:40:13.469Z,3.20
2019-04-04T10:41:13.451Z,3.40
2019-04-04T10:42:13.446Z,3.60
2019-04-04T10:43:13.430Z,3.30
2019-04-04T10:44:13.428Z,3.20
2019-04-04T10:45:13.402Z,3.80
2019-04-04T10:46:13.398Z,3.20
2019-04-04T10:47:13.405Z,3.40
2019-04-04T10:48:13.376Z,3.50
2019-04-04T10:49:13.400Z,3.30
2019-04-04T10:50:13.351Z,3.40
2019-04-04T10:51:13.340Z,3.20
2019-04-04T10:52:13.331Z,3.40
2019-04-04T10:53:13.311Z,3.20
2019-04-04T10:54:13.309Z,3.30
2019-04-04T10:55:13.309Z,3.80
2019-04-04T10:56:13.284Z,3.60
2019-04-04T10:57:13.271Z,3.30
2019-04-04T10:58:13.255Z,3.70
2019-04-04T10:59:19.628Z,3.40
2019-04-04T11:00:13.255Z,4.10
2019-04-04T11:01:13.233Z,3.80
2019-04-04T11:02:13.210Z,3.60
2019-04-04T11:03:13.199Z,3.60
2019-04-04T11:04:13.187Z,3.50
2019-04-04T11:05:13.216Z,3.00
2019-04-04T11:06:13.166Z,3.20
2019-04-04T11:07:13.150Z,4.10
2019-04-04T11:08:13.144Z,3.50
2019-04-04T11:09:13.135Z,3.30
2019-04-04T11:10:13.120Z,4.00
2019-04-04T11:11:13.122Z,3.40
2019-04-04T11:12:13.120Z,3.40
2019-04-04T11:13:13.088Z,3.40
2019-04-04T11:14:13.075Z,3.60
2019-04-04T11:15:13.061Z,3.90
2019-04-04T11:16:13.063Z,3.70
2019-04-04T11:17:13.035Z,3.50
2019-04-04T11:18:13.028Z,3.60
2019-04-04T11:19:13.015Z,3.40
2019-04-04T11:20:13.006Z,3.60
2019-04-04T11:21:13.033Z,3.30
2019-04-04T11:22:12.996Z,3.40
2019-04-04T11:23:12.974Z,3.70
2019-04-04T11:24:12.961Z,3.60
2019-04-04T11:25:12.950Z,3.60
2019-04-04T11:26:12.937Z,3.50
2019-04-04T11:27:12.939Z,3.90
2019-04-04T11:28:12.918Z,3.50
2019-04-04T11:29:12.905Z,3.60
2019-04-04T11:30:12.890Z,3.70
2019-04-04T11:31:18.969Z,3.30
2019-04-04T11:32:12.875Z,3.40
2019-04-04T11:33:12.854Z,3.30
2019-04-04T11:34:12.842Z,3.40
2019-04-04T11:35:12.832Z,3.50
2019-04-04T11:36:12.820Z,3.40
2019-04-04T11:37:12.822Z,3.30
2019-04-04T11:38:12.797Z,3.60
2019-04-04T11:39:12.786Z,3.80
2019-04-04T11:40:12.774Z,3.30
2019-04-04T11:41:12.765Z,3.90
2019-04-04T11:42:12.788Z,3.30
2019-04-04T11:43:12.745Z,3.80
2019-04-04T11:44:12.735Z,3.40
2019-04-04T11:45:12.722Z,3.00
2019-04-04T11:46:12.706Z,3.30
2019-04-04T11:47:12.692Z,3.40
2019-04-04T11:48:12.730Z,3.10
2019-04-04T11:49:12.677Z,3.70
2019-04-04T11:50:12.665Z,3.40
2019-04-04T11:51:12.654Z,3.30
2019-04-04T11:52:12.638Z,3.60
2019-04-04T11:53:12.629Z,3.50
2019-04-04T11:54:12.628Z,3.60
2019-04-04T11:55:12.601Z,3.50
2019-04-04T11:56:12.592Z,3.10
2019-04-04T11:57:12.577Z,3.70
2019-04-04T11:58:12.566Z,3.50
2019-04-04T11:59:12.580Z,3.50
2019-04-04T12:00:12.547Z,3.20
2019-04-04T12:01:12.535Z,3.50
2019-04-04T12:02:12.524Z,3.40
2019-04-04T12:03:18.909Z,3.60
2019-04-04T12:04:12.501Z,3.40
2019-04-04T12:05:12.511Z,3.40
2019-04-04T12:06:12.476Z,3.50
2019-04-04T12:07:12.466Z,3.40
2019-04-04T12:08:12.457Z,3.40
2019-04-04T12:09:12.466Z,3.70
2019-04-04T12:10:12.435Z,3.30
2019-04-04T12:11:12.465Z,3.10
2019-04-04T12:12:12.408Z,3.40
2019-04-04T12:13:12.399Z,3.70
2019-04-04T12:14:12.390Z,3.10
2019-04-04T12:15:12.378Z,3.40
2019-04-04T12:16:12.365Z,3.40
2019-04-04T12:17:12.364Z,3.30
2019-04-04T12:18:12.344Z,3.50
2019-04-04T12:19:12.335Z,3.20
2019-04-04T12:20:12.319Z,3.60
2019-04-04T12:21:12.326Z,3.20
2019-04-04T12:22:12.299Z,3.60
2019-04-04T12:23:12.283Z,3.30
2019-04-04T12:24:12.277Z,3.10
2019-04-04T12:25:12.266Z,3.20
2019-04-04T12:26:12.252Z,3.30
2019-04-04T12:27:12.279Z,3.50
2019-04-04T12:28:12.225Z,3.30
2019-04-04T12:29:12.215Z,2.90
2019-04-04T12:30:12.209Z,3.40
2019-04-04T12:31:12.195Z,3.30
2019-04-04T12:32:12.187Z,3.70
2019-04-04T12:33:12.179Z,3.20
2019-04-04T12:34:12.159Z,3.40
2019-04-04T12:35:18.539Z,3.30
2019-04-04T12:36:23.827Z,3.40
2019-04-04T12:37:17.040Z,3.40
2019-04-04T12:38:12.132Z,3.20
2019-04-04T12:39:12.104Z,3.30
2019-04-04T12:40:20.530Z,3.00
2019-04-04T12:41:13.083Z,3.30
2019-04-04T12:42:12.066Z,3.10
2019-04-04T12:43:12.058Z,3.10
2019-04-04T12:44:12.063Z,3.20
2019-04-04T12:45:12.030Z,3.20
2019-04-04T12:46:12.030Z,3.00
2019-04-04T12:47:12.013Z,3.30
2019-04-04T12:48:12.003Z,3.30
2019-04-04T12:49:11.988Z,3.20
2019-04-04T12:50:11.982Z,3.30
2019-04-04T12:51:11.962Z,3.30
2019-04-04T12:52:11.955Z,3.30
2019-04-04T12:53:11.943Z,3.00
2019-04-04T12:54:11.933Z,2.90
2019-04-04T12:55:11.950Z,3.40
2019-04-04T12:56:11.911Z,2.90
2019-04-04T12:57:11.898Z,3.30
2019-04-04T12:58:11.882Z,3.50
2019-04-04T12:59:11.876Z,3.40
2019-04-04T13:00:11.866Z,3.10
2019-04-04T13:01:11.861Z,3.30
2019-04-04T13:02:11.841Z,3.10
2019-04-04T13:03:11.823Z,3.30
2019-04-04T13:04:11.818Z,3.30
2019-04-04T13:05:11.804Z,3.10
2019-04-04T13:06:11.806Z,3.30
2019-04-04T13:07:17.875Z,3.00
2019-04-04T13:08:11.774Z,3.20
2019-04-04T13:09:11.764Z,3.10
2019-04-04T13:10:12.309Z,3.20
2019-04-04T13:11:11.771Z,3.10
2019-04-04T13:12:11.725Z,3.10
2019-04-04T13:13:11.718Z,3.10
2019-04-04T13:14:11.699Z,3.10
2019-04-04T13:15:11.703Z,3.20
2019-04-04T13:16:11.675Z,3.40
2019-04-04T13:17:11.710Z,2.90
2019-04-04T13:18:11.653Z,2.80
2019-04-04T13:19:11.645Z,3.20
2019-04-04T13:20:11.635Z,3.50